Time;durP1;ratioP1;P1;durP2;ratioP2;P2;SDS_P1;SDS_P2;PMS_P1;PMS_P2;Temp;Humidity;BMP_temperature;BMP_pressure;BME280_temperature;BME280_humidity;BME280_pressure;Samples;Min_cycle;Max_cycle;Signal;HPM_P1;HPM_P2
2023/09/22 00:01:12;;;;;;;7.22;2.25;;;20.70;99.90;;;;;;6307719;22;20302;-74
2023/09/22 00:03:38;;;;;;;7.53;2.20;;;20.70;99.90;;;;;;6307457;22;20332;-73
2023/09/22 00:06:04;;;;;;;5.93;2.00;;;20.70;99.90;;;;;;6307600;22;20038;-74
2023/09/22 00:08:30;;;;;;;4.40;2.30;;;20.70;99.90;;;;;;6307436;22;20072;-74
2023/09/22 00:10:55;;;;;;;9.85;2.95;;;20.70;99.90;;;;;;6307224;22;20018;-74
2023/09/22 00:13:21;;;;;;;6.38;2.30;;;20.70;99.90;;;;;;6307378;22;20000;-75
2023/09/22 00:15:47;;;;;;;5.25;2.38;;;20.70;99.90;;;;;;6306931;22;20099;-73
2023/09/22 00:18:13;;;;;;;6.97;2.50;;;20.70;99.90;;;;;;6280256;22;19996;-74
2023/09/22 00:20:39;;;;;;;4.78;2.38;;;20.70;99.90;;;;;;6307182;22;20013;-74
2023/09/22 00:23:04;;;;;;;4.10;2.08;;;20.60;99.90;;;;;;6307416;22;20058;-73
2023/09/22 00:25:31;;;;;;;5.25;2.10;;;20.60;99.90;;;;;;6307359;22;19999;-74
2023/09/22 00:27:57;;;;;;;10.05;2.90;;;20.60;99.90;;;;;;6307639;22;20061;-73
2023/09/22 00:30:23;;;;;;;12.07;2.42;;;20.60;99.90;;;;;;6307269;22;20034;-74
2023/09/22 00:32:49;;;;;;;4.78;2.10;;;20.60;99.90;;;;;;6306867;22;20022;-74
2023/09/22 00:35:15;;;;;;;8.48;2.08;;;20.60;99.90;;;;;;6307145;22;20425;-74
2023/09/22 00:37:41;;;;;;;4.22;2.17;;;20.60;99.90;;;;;;6306721;22;20057;-74
2023/09/22 00:40:12;;;;;;;7.78;2.20;;;20.60;99.90;;;;;;6307281;22;20161;-74
2023/09/22 00:42:38;;;;;;;5.15;1.95;;;20.50;99.90;;;;;;6306914;22;20372;-73
2023/09/22 00:45:04;;;;;;;6.55;2.40;;;20.50;99.90;;;;;;6307140;22;20000;-74
2023/09/22 00:47:30;;;;;;;3.10;1.92;;;20.50;99.90;;;;;;6306847;22;20003;-74
2023/09/22 00:49:56;;;;;;;6.57;2.03;;;20.50;99.90;;;;;;6306953;22;20010;-75
2023/09/22 00:52:24;;;;;;;3.55;1.98;;;20.50;99.90;;;;;;6307381;22;20329;-74
2023/09/22 00:54:50;;;;;;;5.22;2.30;;;20.50;99.90;;;;;;6306842;22;19999;-72
2023/09/22 00:57:19;;;;;;;11.60;2.60;;;20.50;99.90;;;;;;6307066;22;19999;-73
2023/09/22 00:59:46;;;;;;;7.72;2.35;;;20.60;99.90;;;;;;6275461;22;20003;-75
2023/09/22 01:02:12;;;;;;;4.80;2.35;;;20.50;99.90;;;;;;6303785;22;20483;-72
2023/09/22 01:04:38;;;;;;;11.02;2.65;;;20.60;99.90;;;;;;6305065;22;19995;-75
2023/09/22 01:07:04;;;;;;;7.15;2.40;;;20.50;99.90;;;;;;6306733;22;20069;-75
2023/09/22 01:09:30;;;;;;;9.35;2.40;;;20.60;99.90;;;;;;6306754;22;19999;-75
2023/09/22 01:11:56;;;;;;;6.93;2.42;;;20.50;99.90;;;;;;6306963;22;20007;-74
2023/09/22 01:14:22;;;;;;;8.88;2.67;;;20.50;99.90;;;;;;6306717;22;20400;-74
2023/09/22 01:16:50;;;;;;;8.85;2.22;;;20.50;99.90;;;;;;6306822;22;20368;-73
2023/09/22 01:19:16;;;;;;;4.90;2.28;;;20.50;99.90;;;;;;6306305;22;20006;-73
2023/09/22 01:21:49;;;;;;;5.85;2.25;;;20.50;99.90;;;;;;6306529;22;20000;-74
2023/09/22 01:24:15;;;;;;;4.63;2.50;;;20.50;99.90;;;;;;6306940;22;20006;-74
2023/09/22 01:26:40;;;;;;;5.88;2.40;;;20.50;99.90;;;;;;6306946;22;20007;-74
2023/09/22 01:29:07;;;;;;;6.07;2.25;;;20.50;99.90;;;;;;6305807;22;20057;-75
2023/09/22 01:31:36;;;;;;;6.97;2.53;;;20.50;99.90;;;;;;6306434;22;20015;-74
2023/09/22 01:34:02;;;;;;;11.70;2.78;;;20.40;99.90;;;;;;6306438;22;20049;-73
2023/09/22 01:36:28;;;;;;;12.15;2.95;;;20.40;99.90;;;;;;6306566;22;20007;-73
2023/09/22 01:38:55;;;;;;;9.40;2.20;;;20.40;99.90;;;;;;6306906;22;20003;-74
2023/09/22 01:41:20;;;;;;;7.38;2.42;;;20.40;99.90;;;;;;6306626;22;20077;-75
2023/09/22 01:43:46;;;;;;;5.70;2.45;;;20.40;99.90;;;;;;6306587;22;20165;-75
2023/09/22 01:46:12;;;;;;;10.63;2.25;;;20.40;99.90;;;;;;6306502;22;20318;-74
2023/09/22 01:48:38;;;;;;;13.75;2.28;;;20.40;99.90;;;;;;6306535;22;20087;-74
2023/09/22 01:51:03;;;;;;;7.25;2.53;;;20.40;99.90;;;;;;6280670;22;20042;-74
2023/09/22 01:53:29;;;;;;;13.45;3.20;;;20.40;99.90;;;;;;6308551;22;20440;-75
2023/09/22 01:55:55;;;;;;;5.30;2.38;;;20.40;99.90;;;;;;6308289;22;20038;-73
2023/09/22 01:58:21;;;;;;;13.48;2.55;;;20.40;99.90;;;;;;6308584;22;20002;-75
2023/09/22 02:00:48;;;;;;;9.52;2.30;;;20.30;99.90;;;;;;6308365;22;20003;-74
2023/09/22 02:03:14;;;;;;;6.53;2.60;;;20.30;99.90;;;;;;6308398;22;20328;-74
2023/09/22 02:05:40;;;;;;;8.40;2.58;;;20.30;99.90;;;;;;6308187;22;20030;-75
2023/09/22 02:08:07;;;;;;;14.77;3.10;;;20.30;99.90;;;;;;6308309;22;20356;-75
2023/09/22 02:10:33;;;;;;;6.15;2.17;;;20.30;99.90;;;;;;6308472;22;20012;-74
2023/09/22 02:12:59;;;;;;;6.38;2.42;;;20.30;99.90;;;;;;6308349;22;20086;-73
2023/09/22 02:15:24;;;;;;;4.38;2.83;;;20.20;99.90;;;;;;6307880;22;20011;-75
2023/09/22 02:17:50;;;;;;;9.13;2.63;;;20.20;99.90;;;;;;6308894;22;20026;-74
2023/09/22 02:20:22;;;;;;;6.15;2.10;;;20.20;99.90;;;;;;6308523;22;20433;-74
2023/09/22 02:22:53;;;;;;;9.93;2.47;;;20.20;99.90;;;;;;6308646;22;20022;-74
2023/09/22 02:25:20;;;;;;;5.85;2.47;;;20.20;99.90;;;;;;6308495;22;19999;-74
2023/09/22 02:27:50;;;;;;;7.40;2.45;;;20.20;99.90;;;;;;6307311;22;20011;-73
2023/09/22 02:30:16;;;;;;;12.23;2.83;;;20.20;99.90;;;;;;6304866;22;20323;-74
2023/09/22 02:32:45;;;;;;;8.98;2.67;;;20.20;99.90;;;;;;6305657;22;20626;-73
2023/09/22 02:35:12;;;;;;;5.03;2.45;;;20.20;99.90;;;;;;6307889;22;20095;-73
2023/09/22 02:37:37;;;;;;;6.72;2.45;;;20.20;99.90;;;;;;6308551;22;19999;-74
2023/09/22 02:40:05;;;;;;;8.20;2.60;;;20.10;99.90;;;;;;6308135;22;20030;-73
2023/09/22 02:42:31;;;;;;;8.77;2.50;;;20.10;99.90;;;;;;6308354;22;20015;-74
2023/09/22 02:44:56;;;;;;;7.18;2.80;;;20.10;99.90;;;;;;6308141;22;20325;-75
2023/09/22 02:47:22;;;;;;;7.78;3.00;;;20.20;99.90;;;;;;6308094;22;20425;-72
2023/09/22 02:49:48;;;;;;;8.75;3.08;;;20.20;99.90;;;;;;6308072;22;19995;-74
2023/09/22 02:52:14;;;;;;;9.68;2.95;;;20.10;99.90;;;;;;6280779;22;20004;-75
2023/09/22 02:54:39;;;;;;;15.38;2.85;;;20.20;99.90;;;;;;6307862;22;20081;-74
2023/09/22 02:57:06;;;;;;;7.22;3.38;;;20.20;99.90;;;;;;6308501;22;20011;-74
2023/09/22 02:59:32;;;;;;;12.73;3.35;;;20.20;99.90;;;;;;6307935;22;20046;-75
2023/09/22 03:01:58;;;;;;;11.77;3.05;;;20.20;99.90;;;;;;6308058;22;19999;-75
2023/09/22 03:04:24;;;;;;;11.52;3.05;;;20.20;99.90;;;;;;6307912;22;20003;-74
2023/09/22 03:06:49;;;;;;;7.75;2.72;;;20.20;99.90;;;;;;6307939;22;20006;-75
2023/09/22 03:09:15;;;;;;;10.05;3.00;;;20.20;99.90;;;;;;6307496;22;20023;-75
2023/09/22 03:11:41;;;;;;;7.85;2.67;;;20.20;99.90;;;;;;6307758;22;20030;-76
2023/09/22 03:14:07;;;;;;;8.15;3.10;;;20.20;99.90;;;;;;6308022;22;20011;-75
2023/09/22 03:16:34;;;;;;;9.95;2.97;;;20.20;99.90;;;;;;6307876;22;20027;-75
2023/09/22 03:19:00;;;;;;;8.00;3.10;;;20.20;99.90;;;;;;6307749;22;20065;-75
2023/09/22 03:21:26;;;;;;;10.35;3.28;;;20.20;99.90;;;;;;6307665;22;20019;-76
2023/09/22 03:23:53;;;;;;;9.68;3.30;;;20.20;99.90;;;;;;6307728;22;20002;-76
2023/09/22 03:26:20;;;;;;;7.80;3.08;;;20.20;99.90;;;;;;6307210;22;19999;-76
2023/09/22 03:28:47;;;;;;;11.50;3.08;;;20.20;99.90;;;;;;6307805;22;20022;-76
2023/09/22 03:31:13;;;;;;;6.40;3.28;;;20.20;99.90;;;;;;6307854;22;20008;-75
2023/09/22 03:33:42;;;;;;;9.48;3.33;;;20.20;99.90;;;;;;6307713;22;19999;-76
2023/09/22 03:36:12;;;;;;;6.53;3.20;;;20.20;99.90;;;;;;6307654;22;20007;-74
2023/09/22 03:38:42;;;;;;;10.70;3.30;;;20.20;99.90;;;;;;6307666;22;20022;-72
2023/09/22 03:41:08;;;;;;;9.05;3.13;;;20.20;99.90;;;;;;6307834;22;19999;-75
2023/09/22 03:43:34;;;;;;;6.68;3.05;;;20.20;99.90;;;;;;6307821;22;20053;-76
2023/09/22 03:46:01;;;;;;;9.98;3.25;;;20.20;99.90;;;;;;6307651;22;20010;-76
2023/09/22 03:48:26;;;;;;;11.25;3.35;;;20.20;99.90;;;;;;6307046;22;20007;-74
2023/09/22 03:50:55;;;;;;;7.10;3.30;;;20.20;99.90;;;;;;6306983;22;20367;-76
2023/09/22 03:53:22;;;;;;;8.88;3.45;;;20.20;99.90;;;;;;6307565;22;20002;-76
2023/09/22 03:55:49;;;;;;;10.27;4.03;;;20.10;99.90;;;;;;6307572;22;20003;-76
2023/09/22 03:58:16;;;;;;;10.02;3.63;;;20.20;99.90;;;;;;6280258;22;20429;-75
2023/09/22 04:00:43;;;;;;;8.25;3.72;;;20.10;99.90;;;;;;6307475;22;20003;-75
2023/09/22 04:03:09;;;;;;;11.13;3.45;;;20.20;99.90;;;;;;6307128;22;19995;-75
2023/09/22 04:05:38;;;;;;;9.85;3.65;;;20.10;99.90;;;;;;6307298;22;20082;-75
2023/09/22 04:08:05;;;;;;;9.60;4.30;;;20.10;99.90;;;;;;6307441;22;20682;-76
2023/09/22 04:10:31;;;;;;;7.88;3.80;;;20.10;99.90;;;;;;6307166;22;20432;-75
2023/09/22 04:12:57;;;;;;;11.55;3.88;;;20.10;99.90;;;;;;6279596;22;20011;-75
2023/09/22 04:15:23;;;;;;;10.90;3.83;;;20.10;99.90;;;;;;6307406;22;20386;-75
2023/09/22 04:17:50;;;;;;;12.80;3.70;;;20.10;99.90;;;;;;6279834;22;20014;-76
2023/09/22 04:20:26;;;;;;;7.50;3.95;;;20.10;99.90;;;;;;6307486;22;20041;-75
2023/09/22 04:22:53;;;;;;;14.38;4.35;;;20.10;99.90;;;;;;6307587;22;20370;-76
2023/09/22 04:25:19;;;;;;;8.95;4.68;;;20.10;99.90;;;;;;6306713;22;20026;-76
2023/09/22 04:27:53;;;;;;;11.88;4.25;;;20.10;99.90;;;;;;6306999;22;20444;-76
2023/09/22 04:30:20;;;;;;;16.23;5.35;;;20.10;99.90;;;;;;6306602;22;20011;-74
2023/09/22 04:32:47;;;;;;;13.15;4.50;;;20.10;99.90;;;;;;6306576;22;20078;-76
2023/09/22 04:35:13;;;;;;;8.18;3.95;;;20.10;99.90;;;;;;6307225;22;20007;-76
2023/09/22 04:37:40;;;;;;;11.57;4.38;;;20.10;99.90;;;;;;6307677;22;20003;-76
2023/09/22 04:40:27;;;;;;;14.27;5.00;;;20.10;99.90;;;;;;6279749;22;20072;-76
2023/09/22 04:42:54;;;;;;;10.15;4.45;;;20.10;99.90;;;;;;6307330;22;20070;-75
2023/09/22 04:45:21;;;;;;;9.90;4.90;;;20.10;99.90;;;;;;6307146;22;20025;-76
2023/09/22 04:47:48;;;;;;;14.13;4.78;;;20.10;99.90;;;;;;6306848;22;19999;-76
2023/09/22 04:50:18;;;;;;;10.93;4.20;;;20.10;99.90;;;;;;6307094;22;20007;-76
2023/09/22 04:52:45;;;;;;;15.60;4.18;;;20.10;99.90;;;;;;6306790;22;20003;-74
2023/09/22 04:55:11;;;;;;;11.90;4.35;;;20.10;99.90;;;;;;6306998;22;19999;-75
2023/09/22 04:57:36;;;;;;;12.65;4.20;;;20.10;99.90;;;;;;6306911;22;20074;-75
2023/09/22 05:00:09;;;;;;;12.02;4.50;;;20.10;99.90;;;;;;6306948;22;20049;-75
2023/09/22 05:02:35;;;;;;;11.90;4.53;;;20.00;99.90;;;;;;6306973;22;20094;-75
2023/09/22 05:05:01;;;;;;;11.23;4.47;;;20.10;99.90;;;;;;6307017;22;20490;-76
2023/09/22 05:07:30;;;;;;;14.63;4.40;;;20.10;99.90;;;;;;6306985;22;20068;-74
2023/09/22 05:09:55;;;;;;;13.57;4.22;;;20.10;99.90;;;;;;6306852;22;19996;-76
2023/09/22 05:12:21;;;;;;;14.60;4.47;;;20.10;99.90;;;;;;6307074;22;19999;-75
2023/09/22 05:14:47;;;;;;;15.20;4.90;;;20.10;99.90;;;;;;6306671;22;20020;-76
2023/09/22 05:17:14;;;;;;;10.93;4.28;;;20.10;99.90;;;;;;6306757;22;20003;-74
2023/09/22 05:19:39;;;;;;;11.68;4.28;;;20.10;99.90;;;;;;6307045;22;20322;-74
2023/09/22 05:22:05;;;;;;;11.05;4.65;;;20.10;99.90;;;;;;6306504;22;19996;-75
2023/09/22 05:24:31;;;;;;;13.27;4.80;;;20.10;99.90;;;;;;6307294;22;20145;-75
2023/09/22 05:26:57;;;;;;;14.05;4.65;;;20.10;99.90;;;;;;6308690;22;19995;-74
2023/09/22 05:29:22;;;;;;;14.85;4.50;;;20.10;99.90;;;;;;6308088;22;20429;-75
2023/09/22 05:31:48;;;;;;;17.83;4.43;;;20.10;99.90;;;;;;6308078;22;20007;-75
2023/09/22 05:34:14;;;;;;;13.93;5.20;;;20.10;99.90;;;;;;6308868;22;19999;-74
2023/09/22 05:36:42;;;;;;;13.45;5.47;;;20.10;99.90;;;;;;6309021;22;20082;-73
2023/09/22 05:39:10;;;;;;;12.25;4.93;;;20.10;99.90;;;;;;6307656;22;19999;-75
2023/09/22 05:41:36;;;;;;;16.85;5.82;;;20.00;99.90;;;;;;6307348;22;20011;-75
2023/09/22 05:44:02;;;;;;;15.07;5.93;;;20.10;99.90;;;;;;6306760;22;20041;-75
2023/09/22 05:46:31;;;;;;;12.55;6.00;;;20.10;99.90;;;;;;6307926;22;20057;-74
2023/09/22 05:48:57;;;;;;;19.90;6.30;;;20.10;99.90;;;;;;6307305;22;20007;-75
2023/09/22 05:51:23;;;;;;;21.45;7.20;;;20.20;99.90;;;;;;6307997;22;20091;-76
2023/09/22 05:53:52;;;;;;;16.17;6.25;;;20.20;99.90;;;;;;6308662;22;20023;-76
2023/09/22 05:56:18;;;;;;;22.98;5.22;;;20.20;99.90;;;;;;6308754;22;20014;-75
2023/09/22 05:58:44;;;;;;;19.77;5.38;;;20.20;99.90;;;;;;6309246;22;20003;-75
2023/09/22 06:01:12;;;;;;;17.75;5.22;;;20.20;99.90;;;;;;6308249;22;20010;-76
2023/09/22 06:03:39;;;;;;;18.30;6.15;;;20.30;99.90;;;;;;6308965;22;20081;-74
2023/09/22 06:06:15;;;;;;;9.43;4.47;;;20.30;99.90;;;;;;6308502;22;20426;-76
2023/09/22 06:08:45;;;;;;;13.95;4.70;;;20.30;99.90;;;;;;6281453;22;20040;-75
2023/09/22 06:11:12;;;;;;;13.32;5.25;;;20.40;99.90;;;;;;6308425;22;20015;-78
2023/09/22 06:13:38;;;;;;;10.55;5.15;;;20.40;99.90;;;;;;6307926;22;20006;-77
2023/09/22 06:16:05;;;;;;;12.85;4.55;;;20.40;99.90;;;;;;6308210;22;20014;-74
2023/09/22 06:18:31;;;;;;;16.85;4.70;;;20.50;99.90;;;;;;6308419;22;19995;-76
2023/09/22 06:20:59;;;;;;;14.30;4.93;;;20.50;99.90;;;;;;6306949;22;20007;-76
2023/09/22 06:23:25;;;;;;;15.52;4.20;;;20.60;99.90;;;;;;6306726;22;20430;-75
2023/09/22 06:26:00;;;;;;;17.58;4.35;;;20.60;99.90;;;;;;6308789;22;20417;-76
2023/09/22 06:28:26;;;;;;;11.55;4.60;;;20.60;99.90;;;;;;6307208;22;20044;-76
2023/09/22 06:30:52;;;;;;;11.65;4.47;;;20.60;99.90;;;;;;6308315;22;20015;-75
2023/09/22 06:33:18;;;;;;;11.55;3.97;;;20.60;99.90;;;;;;6281051;22;20076;-74
2023/09/22 06:35:46;;;;;;;9.52;3.75;;;20.70;99.90;;;;;;6308016;22;20013;-76
2023/09/22 06:38:13;;;;;;;9.70;4.13;;;20.70;99.90;;;;;;6308501;22;20022;-75
2023/09/22 06:40:41;;;;;;;16.75;5.93;;;20.70;99.90;;;;;;6308512;22;20003;-75
2023/09/22 06:43:08;;;;;;;16.92;4.50;;;20.70;99.90;;;;;;6281009;22;20007;-75
2023/09/22 06:45:37;;;;;;;12.32;4.45;;;20.80;99.90;;;;;;6308280;22;20007;-75
2023/09/22 06:48:05;;;;;;;17.00;5.55;;;20.80;99.90;;;;;;6308294;22;20085;-75
2023/09/22 06:50:37;;;;;;;13.52;4.95;;;20.80;99.90;;;;;;6308214;22;20455;-74
2023/09/22 06:53:03;;;;;;;10.93;4.47;;;20.80;99.90;;;;;;6308309;22;20443;-74
2023/09/22 06:55:33;;;;;;;12.07;4.50;;;20.80;99.90;;;;;;6306540;22;20013;-74
2023/09/22 06:57:59;;;;;;;10.75;4.53;;;20.90;99.90;;;;;;6306090;22;20046;-75
2023/09/22 07:00:28;;;;;;;17.98;5.40;;;20.80;99.90;;;;;;6307191;22;19999;-75
2023/09/22 07:02:55;;;;;;;15.70;5.30;;;20.90;99.90;;;;;;6307819;22;20057;-74
2023/09/22 07:05:21;;;;;;;11.02;4.97;;;20.90;99.90;;;;;;6307812;22;20349;-74
2023/09/22 07:07:49;;;;;;;14.07;4.80;;;21.00;99.90;;;;;;6307614;22;20001;-75
2023/09/22 07:10:16;;;;;;;17.88;5.15;;;21.10;99.90;;;;;;6280124;22;20041;-75
2023/09/22 07:12:42;;;;;;;19.10;6.05;;;21.10;99.90;;;;;;6307817;22;20026;-75
2023/09/22 07:15:12;;;;;;;21.38;5.07;;;21.20;99.90;;;;;;6307349;22;20014;-75
2023/09/22 07:17:40;;;;;;;15.95;6.18;;;21.20;99.90;;;;;;6307276;22;20075;-75
2023/09/22 07:20:09;;;;;;;20.08;5.78;;;21.30;99.90;;;;;;6307164;22;20014;-74
2023/09/22 07:22:35;;;;;;;19.63;7.13;;;21.30;99.90;;;;;;6279833;22;20462;-75
2023/09/22 07:25:03;;;;;;;14.50;6.40;;;21.40;99.90;;;;;;6307810;22;19995;-74
2023/09/22 07:27:29;;;;;;;17.73;6.07;;;21.50;99.90;;;;;;6307307;22;20011;-75
2023/09/22 07:29:54;;;;;;;18.70;6.35;;;21.60;99.90;;;;;;6307417;22;20355;-76
2023/09/22 07:32:21;;;;;;;17.67;5.80;;;21.70;99.90;;;;;;6305823;22;20010;-76
2023/09/22 07:34:48;;;;;;;14.70;5.72;;;21.80;99.90;;;;;;6306572;22;20003;-76
2023/09/22 07:37:16;;;;;;;24.63;6.15;;;21.90;99.90;;;;;;6306783;22;20003;-75
2023/09/22 07:39:42;;;;;;;17.35;5.45;;;22.00;99.90;;;;;;6306952;22;20029;-76
2023/09/22 07:42:09;;;;;;;30.42;6.45;;;22.00;99.90;;;;;;6307089;22;20000;-75
2023/09/22 07:44:37;;;;;;;20.67;6.05;;;22.10;99.90;;;;;;6307160;22;20425;-76
2023/09/22 07:47:10;;;;;;;21.83;6.45;;;22.20;99.90;;;;;;6306856;22;19996;-76
2023/09/22 07:49:37;;;;;;;21.77;5.72;;;22.20;99.90;;;;;;6307046;22;19999;-76
2023/09/22 07:52:04;;;;;;;28.75;5.93;;;22.30;99.90;;;;;;6307282;22;20017;-76
2023/09/22 07:54:31;;;;;;;27.52;6.72;;;22.30;99.90;;;;;;6307104;22;20000;-75
2023/09/22 07:56:57;;;;;;;23.55;5.88;;;22.40;99.90;;;;;;6307510;22;20027;-76
2023/09/22 07:59:23;;;;;;;33.95;7.75;;;22.40;99.90;;;;;;6307219;22;20397;-72
2023/09/22 08:01:49;;;;;;;28.52;6.82;;;22.40;99.90;;;;;;6304803;22;19995;-72
2023/09/22 08:04:15;;;;;;;24.73;5.65;;;22.40;99.90;;;;;;6307293;22;19999;-72
2023/09/22 08:06:40;;;;;;;21.20;6.80;;;22.40;99.90;;;;;;6307161;22;20027;-72
2023/09/22 08:09:06;;;;;;;25.08;7.18;;;22.50;99.90;;;;;;6307331;22;20017;-72
2023/09/22 08:11:33;;;;;;;23.92;7.07;;;22.50;99.90;;;;;;6306786;22;20012;-72
2023/09/22 08:13:59;;;;;;;25.95;7.03;;;22.50;99.90;;;;;;6306801;22;20011;-72
2023/09/22 08:16:26;;;;;;;21.02;6.40;;;22.50;99.90;;;;;;6306898;22;20044;-72
2023/09/22 08:18:53;;;;;;;22.25;6.10;;;22.60;99.90;;;;;;6307069;22;19999;-72
2023/09/22 08:21:22;;;;;;;23.33;5.72;;;22.60;99.90;;;;;;6307071;22;20086;-71
2023/09/22 08:23:49;;;;;;;29.98;6.20;;;22.60;99.90;;;;;;6307416;22;19999;-72
2023/09/22 08:26:17;;;;;;;26.90;6.07;;;22.70;99.90;;;;;;6307438;22;20003;-72
2023/09/22 08:28:47;;;;;;;23.20;5.97;;;22.70;99.90;;;;;;6307188;22;20316;-73
2023/09/22 08:31:13;;;;;;;25.00;5.75;;;22.80;99.90;;;;;;6307251;22;20018;-72
2023/09/22 08:33:39;;;;;;;26.20;6.20;;;22.80;99.90;;;;;;6307127;22;19995;-72
2023/09/22 08:36:05;;;;;;;26.20;6.15;;;22.90;99.90;;;;;;6307138;22;20356;-72
2023/09/22 08:38:32;;;;;;;31.23;6.80;;;22.90;99.90;;;;;;6306879;22;20083;-70
2023/09/22 08:41:04;;;;;;;28.73;6.63;;;22.90;99.90;;;;;;6279665;22;19999;-72
2023/09/22 08:43:32;;;;;;;;;;;23.00;99.90;;;;;;6307477;22;20003;-73
2023/09/22 08:45:59;;;;;;;17.48;5.50;;;23.10;99.90;;;;;;6306811;22;19899;-72
2023/09/22 08:48:25;;;;;;;27.33;6.05;;;23.10;99.90;;;;;;6306874;22;20002;-72
2023/09/22 08:50:51;;;;;;;25.27;6.35;;;23.10;99.90;;;;;;6306613;22;20015;-70
2023/09/22 08:53:17;;;;;;;20.50;5.80;;;23.20;99.90;;;;;;6306937;22;20078;-71
2023/09/22 08:55:43;;;;;;;18.60;5.65;;;23.20;99.90;;;;;;6306707;22;20002;-72
2023/09/22 08:58:09;;;;;;;23.75;5.70;;;23.20;99.90;;;;;;6306474;22;20002;-72
2023/09/22 09:00:35;;;;;;;28.02;5.68;;;23.20;99.90;;;;;;6278976;22;20003;-72
2023/09/22 09:03:09;;;;;;;29.33;6.65;;;23.30;99.90;;;;;;6306470;22;20494;-72
2023/09/22 09:05:36;;;;;;;19.92;5.63;;;23.30;99.90;;;;;;6306456;22;20053;-72
2023/09/22 09:08:15;;;;;;;22.95;5.60;;;23.40;99.90;;;;;;6307097;22;20000;-72
2023/09/22 09:10:43;;;;;;;23.85;6.07;;;23.40;99.90;;;;;;6306974;22;20419;-72
2023/09/22 09:13:14;;;;;;;24.13;5.32;;;23.40;99.90;;;;;;6306826;22;20070;-72
2023/09/22 09:15:45;;;;;;;21.02;5.00;;;23.50;99.90;;;;;;6306299;22;20015;-72
2023/09/22 09:18:13;;;;;;;16.55;5.13;;;23.60;99.90;;;;;;6306766;22;20006;-72
2023/09/22 09:20:41;;;;;;;19.85;6.18;;;23.60;99.90;;;;;;6307214;22;20007;-73
2023/09/22 09:23:21;;;;;;;28.35;6.20;;;23.70;99.90;;;;;;6306119;22;20002;-72
2023/09/22 09:25:54;;;;;;;15.40;5.85;;;23.70;99.90;;;;;;6306273;22;19999;-73
2023/09/22 09:28:20;;;;;;;22.77;5.32;;;23.70;99.90;;;;;;6306685;22;20377;-73
2023/09/22 09:30:54;;;;;;;25.52;6.50;;;23.70;99.90;;;;;;6279527;22;20007;-73
2023/09/22 09:33:22;;;;;;;24.00;5.40;;;23.80;99.70;;;;;;6306615;22;20007;-72
2023/09/22 09:35:49;;;;;;;20.50;5.03;;;23.80;99.60;;;;;;6306283;22;20007;-72
2023/09/22 09:38:16;;;;;;;24.85;5.00;;;23.90;99.70;;;;;;6306785;22;20426;-72
2023/09/22 09:40:42;;;;;;;25.17;4.80;;;23.90;99.50;;;;;;6306815;22;20048;-72
2023/09/22 09:43:11;;;;;;;24.73;4.70;;;23.90;99.30;;;;;;6306740;22;19999;-73
2023/09/22 09:45:45;;;;;;;24.25;6.28;;;24.00;98.90;;;;;;6306473;22;20106;-73
2023/09/22 09:48:14;;;;;;;23.92;5.20;;;24.00;98.60;;;;;;6306849;22;20019;-72
2023/09/22 09:50:43;;;;;;;26.77;6.05;;;24.00;98.50;;;;;;6306464;22;20046;-72
2023/09/22 09:53:31;;;;;;;25.38;5.43;;;24.00;98.20;;;;;;6306937;22;20003;-72
2023/09/22 09:56:03;;;;;;;30.25;5.75;;;24.10;98.60;;;;;;6287223;22;20144;-74
2023/09/22 09:58:34;;;;;;;28.17;6.00;;;24.10;98.50;;;;;;6306792;22;20006;-72
2023/09/22 10:01:07;;;;;;;29.92;6.35;;;24.20;98.40;;;;;;6278765;22;20048;-76
2023/09/22 10:03:36;;;;;;;24.10;4.90;;;24.20;98.70;;;;;;6306121;22;20054;-78
2023/09/22 10:06:04;;;;;;;23.20;6.15;;;24.20;98.90;;;;;;6306367;22;20009;-76
2023/09/22 10:08:30;;;;;;;31.80;5.88;;;24.30;98.30;;;;;;6279064;22;20061;-73
2023/09/22 10:11:03;;;;;;;30.30;6.07;;;24.30;98.20;;;;;;6306811;22;20375;-73
2023/09/22 10:13:29;;;;;;;20.98;5.35;;;24.30;98.10;;;;;;6308462;22;19999;-75
2023/09/22 10:16:01;;;;;;;20.65;5.32;;;24.40;97.90;;;;;;6308344;22;20088;-76
2023/09/22 10:18:52;;;;;;;24.98;5.50;;;24.50;97.30;;;;;;6308649;22;19995;-82
2023/09/22 10:21:34;;;;;;;28.27;5.78;;;24.50;97.00;;;;;;6280961;22;20332;-75
2023/09/22 10:24:18;;;;;;;20.05;5.07;;;24.50;96.40;;;;;;6308537;22;20432;-79
2023/09/22 10:26:55;;;;;;;20.58;5.85;;;24.60;96.70;;;;;;6308474;22;20038;-75
2023/09/22 10:29:34;;;;;;;19.45;4.53;;;24.60;96.70;;;;;;6308066;22;20094;-72
2023/09/22 10:32:18;;;;;;;24.65;5.63;;;24.50;96.20;;;;;;6308121;22;20035;-73
2023/09/22 10:35:03;;;;;;;22.67;5.00;;;24.60;96.10;;;;;;6308441;22;20061;-73
2023/09/22 10:37:33;;;;;;;21.75;6.00;;;24.70;96.00;;;;;;6308465;22;20373;-73
2023/09/22 10:40:09;;;;;;;26.33;5.78;;;24.70;95.90;;;;;;6308098;22;20010;-73
2023/09/22 10:42:50;;;;;;;26.55;5.78;;;24.80;95.60;;;;;;6308410;22;20329;-73
2023/09/22 10:45:21;;;;;;;24.25;6.78;;;24.90;95.10;;;;;;6308205;22;20353;-73
2023/09/22 10:47:57;;;;;;;27.55;5.18;;;24.90;95.00;;;;;;6308190;22;20006;-73
2023/09/22 10:50:31;;;;;;;22.15;5.43;;;25.00;95.30;;;;;;6307898;22;20003;-73
2023/09/22 10:52:57;;;;;;;26.35;6.13;;;25.00;94.80;;;;;;6308509;22;19999;-73
2023/09/22 10:55:30;;;;;;;27.30;4.90;;;25.10;94.80;;;;;;6307729;22;19999;-73
2023/09/22 10:57:57;;;;;;;28.77;6.32;;;25.10;94.90;;;;;;6280638;22;20329;-73
2023/09/22 11:00:24;;;;;;;20.60;5.72;;;25.20;95.10;;;;;;6307243;22;20007;-73
2023/09/22 11:02:50;;;;;;;25.00;6.10;;;25.20;95.30;;;;;;6307914;22;20440;-73
2023/09/22 11:05:16;;;;;;;20.95;4.70;;;25.30;95.10;;;;;;6308008;22;19995;-73
2023/09/22 11:07:43;;;;;;;18.63;5.10;;;25.30;95.20;;;;;;6280708;22;20417;-73
2023/09/22 11:10:17;;;;;;;27.02;6.05;;;25.40;94.40;;;;;;6308097;22;20011;-73
2023/09/22 11:12:48;;;;;;;27.13;5.72;;;25.40;94.30;;;;;;6306653;22;20007;-73
2023/09/22 11:15:13;;;;;;;20.55;4.78;;;25.40;94.00;;;;;;6304571;22;20012;-74
2023/09/22 11:17:46;;;;;;;24.65;6.68;;;25.40;94.00;;;;;;6304734;22;20089;-73
2023/09/22 11:20:26;;;;;;;23.27;6.18;;;25.30;93.60;;;;;;6307813;22;20069;-73
2023/09/22 11:22:52;;;;;;;24.63;4.75;;;25.30;93.90;;;;;;6307716;22;20434;-73
2023/09/22 11:25:19;;;;;;;23.88;5.40;;;25.40;93.20;;;;;;6308061;22;19999;-73
2023/09/22 11:27:46;;;;;;;24.20;5.43;;;25.40;93.20;;;;;;6307975;22;20332;-72
2023/09/22 11:30:14;;;;;;;20.77;6.15;;;25.30;93.20;;;;;;6307630;22;20003;-72
2023/09/22 11:32:41;;;;;;;28.92;5.57;;;25.30;93.10;;;;;;6308017;22;20003;-72
2023/09/22 11:35:07;;;;;;;23.83;5.00;;;25.30;93.40;;;;;;6307730;22;20354;-72
2023/09/22 11:37:32;;;;;;;27.17;5.05;;;25.30;93.70;;;;;;6279229;22;20475;-73
2023/09/22 11:39:58;;;;;;;22.73;4.93;;;25.30;93.70;;;;;;6304020;22;19999;-74
2023/09/22 11:42:24;;;;;;;26.88;5.32;;;25.30;93.60;;;;;;6304086;22;20053;-74
2023/09/22 11:44:59;;;;;;;18.75;4.95;;;25.30;93.80;;;;;;6306758;22;20023;-73
2023/09/22 11:47:25;;;;;;;22.17;5.68;;;25.30;93.80;;;;;;6307496;22;20003;-74
2023/09/22 11:49:50;;;;;;;22.90;5.25;;;25.30;93.90;;;;;;6280216;22;20033;-73
2023/09/22 11:52:28;;;;;;;22.23;4.93;;;25.30;94.10;;;;;;6279264;22;20018;-75
2023/09/22 11:54:54;;;;;;;25.83;6.28;;;25.30;94.40;;;;;;6279570;22;20329;-73
2023/09/22 11:57:20;;;;;;;32.00;6.15;;;25.30;94.30;;;;;;6307160;22;19999;-72
2023/09/22 11:59:48;;;;;;;32.33;6.05;;;25.20;94.30;;;;;;6279682;22;20007;-72
2023/09/22 12:02:13;;;;;;;20.95;4.97;;;25.10;94.50;;;;;;6306790;22;20006;-73
2023/09/22 12:04:39;;;;;;;28.15;6.60;;;25.10;94.40;;;;;;6307370;22;20003;-73
2023/09/22 12:07:05;;;;;;;23.15;5.68;;;25.10;94.70;;;;;;6307028;22;20034;-72
2023/09/22 12:09:32;;;;;;;17.80;5.35;;;25.00;95.20;;;;;;6307055;22;20062;-72
2023/09/22 12:11:57;;;;;;;24.75;5.97;;;25.00;95.50;;;;;;6307159;22;20007;-72
2023/09/22 12:14:23;;;;;;;31.73;5.93;;;25.00;95.80;;;;;;6307327;22;20014;-72
2023/09/22 12:16:51;;;;;;;30.88;6.30;;;25.10;95.80;;;;;;6307210;22;20011;-72
2023/09/22 12:19:17;;;;;;;25.17;5.35;;;25.10;95.80;;;;;;6307001;22;20051;-71
2023/09/22 12:21:43;;;;;;;26.15;5.95;;;25.10;95.90;;;;;;6306306;22;20003;-73
2023/09/22 12:24:09;;;;;;;27.52;6.10;;;25.10;95.90;;;;;;6307066;22;20038;-72
2023/09/22 12:26:35;;;;;;;25.55;5.45;;;25.00;95.50;;;;;;6307164;22;20007;-73
2023/09/22 12:29:04;;;;;;;24.45;6.15;;;25.00;95.50;;;;;;6306642;22;19995;-72
2023/09/22 12:31:31;;;;;;;23.45;5.65;;;25.00;95.90;;;;;;6306970;22;20007;-73
2023/09/22 12:33:56;;;;;;;24.83;5.40;;;25.00;95.90;;;;;;6306337;22;19999;-72
2023/09/22 12:36:23;;;;;;;25.30;6.03;;;25.00;95.90;;;;;;6307223;22;20025;-73
2023/09/22 12:38:49;;;;;;;23.02;5.97;;;25.10;95.70;;;;;;6306758;22;20003;-73
2023/09/22 12:41:15;;;;;;;27.52;5.97;;;25.10;95.40;;;;;;6305404;22;20368;-72
2023/09/22 12:43:41;;;;;;;27.75;5.18;;;25.10;94.70;;;;;;6306234;22;19999;-73